Time;durP1;ratioP1;P1;durP2;ratioP2;P2;SDS_P1;SDS_P2;PMS_P1;PMS_P2;Temp;Humidity;BMP_temperature;BMP_pressure;BME280_temperature;BME280_humidity;BME280_pressure;Samples;Min_cycle;Max_cycle;Signal;HPM_P1;HPM_P2
2023/11/11 00:01:30;;;;;;;;;;;;;;;12.55;80.50;97506.56;67799;1278;1016450;-71
2023/11/11 00:04:33;;;;;;;;;;;;;;;12.56;80.34;97507.73;67796;1278;1016476;-72
2023/11/11 00:07:35;;;;;;;;;;;;;;;12.49;80.74;97505.22;67801;1278;1016496;-76
2023/11/11 00:10:38;;;;;;;;;;;;;;;12.44;80.69;97503.58;67826;1278;1016344;-76
2023/11/11 00:13:40;;;;;;;;;;;;;;;12.51;80.33;97498.22;67806;1278;1016360;-77
2023/11/11 00:16:43;;;;;;;;;;;;;;;12.46;80.66;97503.22;67811;1278;1016394;-76
2023/11/11 00:19:47;;;;;;;;;;;;;;;12.54;80.73;97508.75;67823;1278;1019477;-74
2023/11/11 00:22:52;;;;;;;;;;;;;;;12.63;80.12;97507.23;67749;1278;1016415;-75
2023/11/11 00:25:54;;;;;;;;;;;;;;;12.65;80.31;97510.27;67827;1278;1016377;-73
2023/11/11 00:28:57;;;;;;;;;;;;;;;12.83;79.34;97505.11;67847;1278;1016565;-75
2023/11/11 00:31:59;;;;;;;;;;;;;;;12.74;79.24;97499.79;67818;1278;1016534;-76
2023/11/11 00:35:02;;;;;;;;;;;;;;;12.84;78.79;97499.11;67804;1278;1016264;-75
2023/11/11 00:38:09;;;;;;;;;;;;;;;12.87;78.62;97502.45;67816;1278;1016422;-74
2023/11/11 00:41:12;;;;;;;;;;;;;;;13.04;78.12;97499.91;67826;1278;1016479;-75
2023/11/11 00:44:15;;;;;;;;;;;;;;;13.04;77.96;97494.10;67851;1278;1016446;-75
2023/11/11 00:47:17;;;;;;;;;;;;;;;13.10;77.81;97492.46;67825;1278;1016396;-75
2023/11/11 00:50:20;;;;;;;;;;;;;;;13.17;77.77;97491.61;67800;1278;1016349;-75
2023/11/11 00:53:22;;;;;;;;;;;;;;;13.14;77.51;97491.54;67775;1278;1016526;-76
2023/11/11 00:56:25;;;;;;;;;;;;;;;13.14;77.51;97492.23;67816;1278;1016507;-74
2023/11/11 00:59:27;;;;;;;;;;;;;;;13.26;76.87;97487.86;67851;1278;1018491;-72
2023/11/11 01:02:30;;;;;;;;;;;;;;;13.41;76.06;97481.24;67801;1278;1016415;-75
2023/11/11 01:05:32;;;;;;;;;;;;;;;13.38;75.69;97474.96;67832;1278;1016767;-71
2023/11/11 01:08:35;;;;;;;;;;;;;;;13.46;75.29;97482.53;67831;1278;1018600;-75
2023/11/11 01:11:38;;;;;;;;;;;;;;;13.34;75.89;97485.21;67846;1278;1016383;-74
2023/11/11 01:14:41;;;;;;;;;;;;;;;13.23;76.74;97475.52;67769;1278;1016527;-76
2023/11/11 01:17:43;;;;;;;;;;;;;;;13.26;76.48;97469.08;67843;1278;1016420;-74
2023/11/11 01:20:46;;;;;;;;;;;;;;;13.29;76.08;97471.38;67857;1278;1016190;-74
2023/11/11 01:23:49;;;;;;;;;;;;;;;13.27;76.38;97478.23;67809;1278;1016616;-72
2023/11/11 01:26:51;;;;;;;;;;;;;;;13.33;76.44;97483.38;67835;1278;1016380;-76
2023/11/11 01:29:54;;;;;;;;;;;;;;;13.35;76.11;97479.30;67848;1278;1016451;-75
2023/11/11 01:32:57;;;;;;;;;;;;;;;13.22;76.35;97473.42;67799;1278;1016495;-76
2023/11/11 01:36:01;;;;;;;;;;;;;;;13.07;77.27;97470.61;67801;1278;1016400;-76
2023/11/11 01:39:04;;;;;;;;;;;;;;;13.10;77.33;97466.87;67831;1278;1016276;-76
2023/11/11 01:42:07;;;;;;;;;;;;;;;13.07;77.36;97464.81;67804;1278;1017030;-75
2023/11/11 01:45:09;;;;;;;;;;;;;;;13.11;77.12;97466.78;67835;1278;1016525;-72
2023/11/11 01:48:12;;;;;;;;;;;;;;;13.22;76.48;97467.70;67846;1278;1016447;-75
2023/11/11 01:51:15;;;;;;;;;;;;;;;13.18;76.76;97469.09;67820;1278;1016189;-75
2023/11/11 01:54:18;;;;;;;;;;;;;;;13.02;78.08;97467.09;67773;1278;1016206;-75
2023/11/11 01:57:20;;;;;;;;;;;;;;;12.97;78.64;97465.80;67833;1278;1016040;-71
2023/11/11 02:00:22;;;;;;;;;;;;;;;12.99;78.59;97467.92;67822;1278;1015993;-72
2023/11/11 02:03:25;;;;;;;;;;;;;;;12.85;79.26;97468.22;67796;1278;1016418;-74
2023/11/11 02:06:28;;;;;;;;;;;;;;;12.72;79.87;97466.17;67825;1278;1016454;-71
2023/11/11 02:09:30;;;;;;;;;;;;;;;12.55;81.15;97462.05;67860;1278;1017324;-74
2023/11/11 02:12:32;;;;;;;;;;;;;;;12.57;81.08;97458.35;67824;1278;1016912;-76
2023/11/11 02:15:35;;;;;;;;;;;;;;;12.54;81.48;97459.52;67781;1278;1016373;-67
2023/11/11 02:18:37;;;;;;;;;;;;;;;12.60;81.13;97454.14;67783;1278;1016277;-69
2023/11/11 02:21:41;;;;;;;;;;;;;;;12.70;80.42;97452.96;67847;1278;1016476;-67
2023/11/11 02:24:44;;;;;;;;;;;;;;;12.60;81.05;97452.50;67826;1278;1016390;-73
2023/11/11 02:27:47;;;;;;;;;;;;;;;12.56;81.32;97453.36;67853;1278;1019356;-75
2023/11/11 02:30:49;;;;;;;;;;;;;;;12.72;80.66;97450.83;67807;1278;1016468;-73
2023/11/11 02:33:51;;;;;;;;;;;;;;;12.68;80.75;97447.87;67811;1278;1015707;-67
2023/11/11 02:36:54;;;;;;;;;;;;;;;12.44;82.44;97445.86;67866;1278;1016387;-69
2023/11/11 02:39:57;;;;;;;;;;;;;;;12.55;81.71;97441.70;67795;1278;1016091;-69
2023/11/11 02:42:59;;;;;;;;;;;;;;;12.68;80.96;97438.91;67789;1278;1016413;-67
2023/11/11 02:46:02;;;;;;;;;;;;;;;13.00;79.02;97436.52;67838;1278;1016301;-73
2023/11/11 02:49:04;;;;;;;;;;;;;;;12.63;81.51;97437.82;67846;1278;1016155;-68
2023/11/11 02:52:07;;;;;;;;;;;;;;;12.54;82.08;97432.32;67787;1278;1016295;-75
2023/11/11 02:55:10;;;;;;;;;;;;;;;12.45;81.99;97430.17;67798;1278;1016462;-66
2023/11/11 02:58:13;;;;;;;;;;;;;;;12.43;82.12;97430.39;67834;1278;1016478;-67
2023/11/11 03:01:15;;;;;;;;;;;;;;;12.41;82.54;97431.20;67773;1278;1018001;-67
2023/11/11 03:04:18;;;;;;;;;;;;;;;12.34;82.94;97426.05;67771;1278;1016853;-70
2023/11/11 03:07:21;;;;;;;;;;;;;;;12.32;83.43;97424.14;67853;1278;1015980;-74
2023/11/11 03:10:23;;;;;;;;;;;;;;;12.40;82.75;97423.21;67824;1278;1016527;-76
2023/11/11 03:13:26;;;;;;;;;;;;;;;12.56;81.69;97422.16;67819;1278;1016795;-74
2023/11/11 03:16:29;;;;;;;;;;;;;;;12.62;81.30;97417.41;67835;1278;1015883;-71
2023/11/11 03:19:32;;;;;;;;;;;;;;;12.66;81.19;97415.48;67849;1278;1016868;-75
2023/11/11 03:22:35;;;;;;;;;;;;;;;12.67;81.38;97412.79;67849;1278;1016277;-74
2023/11/11 03:25:37;;;;;;;;;;;;;;;12.59;81.29;97413.15;67788;1278;1016340;-73
2023/11/11 03:28:40;;;;;;;;;;;;;;;12.54;80.89;97411.64;67830;1278;1017688;-74
2023/11/11 03:31:42;;;;;;;;;;;;;;;12.44;81.24;97408.00;67841;1278;1016194;-76
2023/11/11 03:34:44;;;;;;;;;;;;;;;12.22;82.00;97403.32;67808;1278;1016273;-77
2023/11/11 03:37:47;;;;;;;;;;;;;;;12.10;82.93;97400.88;67820;1278;1016205;-75
2023/11/11 03:40:49;;;;;;;;;;;;;;;11.97;83.45;97396.23;67789;1278;1016393;-71
2023/11/11 03:43:52;;;;;;;;;;;;;;;12.01;83.42;97394.54;67829;1278;1016126;-72
2023/11/11 03:46:55;;;;;;;;;;;;;;;12.10;83.11;97393.04;67835;1278;1017291;-74
2023/11/11 03:49:57;;;;;;;;;;;;;;;12.03;84.34;97392.78;67798;1278;1016645;-71
2023/11/11 03:53:00;;;;;;;;;;;;;;;12.02;84.96;97389.18;67822;1278;1016475;-73
2023/11/11 03:56:02;;;;;;;;;;;;;;;11.87;86.15;97388.16;67858;1278;1016123;-73
2023/11/11 03:59:05;;;;;;;;;;;;;;;11.78;87.15;97385.15;67852;1278;1018817;-74
2023/11/11 04:02:08;;;;;;;;;;;;;;;11.86;86.47;97382.63;67817;1278;1016122;-72
2023/11/11 04:05:11;;;;;;;;;;;;;;;11.78;86.29;97380.17;67826;1278;1016902;-72
2023/11/11 04:08:14;;;;;;;;;;;;;;;11.75;86.41;97381.89;67837;1278;1016373;-75
2023/11/11 04:11:16;;;;;;;;;;;;;;;11.85;86.58;97381.75;67809;1278;1016605;-75
2023/11/11 04:14:18;;;;;;;;;;;;;;;11.98;86.02;97377.08;67812;1278;1015796;-71
2023/11/11 04:17:21;;;;;;;;;;;;;;;11.92;86.34;97371.63;67837;1278;1016002;-71
2023/11/11 04:20:23;;;;;;;;;;;;;;;11.98;86.15;97369.55;67798;1278;1016398;-72
2023/11/11 04:23:28;;;;;;;;;;;;;;;12.02;86.00;97372.54;67795;1278;1016453;-75
2023/11/11 04:26:30;;;;;;;;;;;;;;;12.02;86.00;97375.16;67827;1278;1016412;-72
2023/11/11 04:29:33;;;;;;;;;;;;;;;12.06;86.22;97370.58;67822;1278;1016219;-74
2023/11/11 04:32:35;;;;;;;;;;;;;;;12.15;86.31;97367.88;67804;1278;1016425;-74
2023/11/11 04:35:38;;;;;;;;;;;;;;;12.23;85.60;97367.36;67803;1278;1016472;-73
2023/11/11 04:38:42;;;;;;;;;;;;;;;12.24;85.57;97367.41;67789;1278;1016261;-66
2023/11/11 04:41:44;;;;;;;;;;;;;;;12.23;85.54;97368.82;67807;1278;1016475;-73
2023/11/11 04:44:48;;;;;;;;;;;;;;;12.20;86.05;97369.10;67816;1278;1018282;-75
2023/11/11 04:47:51;;;;;;;;;;;;;;;12.06;86.88;97366.67;67818;1278;1016405;-73
2023/11/11 04:50:53;;;;;;;;;;;;;;;12.19;86.10;97364.64;67855;1278;1016447;-72
2023/11/11 04:53:56;;;;;;;;;;;;;;;12.29;85.65;97366.05;67831;1278;1016439;-70
2023/11/11 04:56:59;;;;;;;;;;;;;;;12.41;85.29;97366.40;67793;1278;1016329;-70
2023/11/11 05:00:06;;;;;;;;;;;;;;;12.44;85.33;97367.45;67843;1278;1015901;-72
2023/11/11 05:03:08;;;;;;;;;;;;;;;12.44;86.00;97369.77;67804;1278;1016409;-69
2023/11/11 05:06:11;;;;;;;;;;;;;;;12.39;85.98;97370.22;67810;1278;1016429;-67
2023/11/11 05:09:15;;;;;;;;;;;;;;;12.57;85.01;97375.45;67821;1278;1016547;-72
2023/11/11 05:12:17;;;;;;;;;;;;;;;12.59;85.61;97375.59;67796;1278;1016284;-74
2023/11/11 05:15:23;;;;;;;;;;;;;;;12.57;86.36;97368.83;67843;1278;1016471;-68
2023/11/11 05:18:26;;;;;;;;;;;;;;;12.52;86.15;97369.76;67828;1278;1016739;-74
2023/11/11 05:21:28;;;;;;;;;;;;;;;12.35;86.51;97375.29;67820;1278;1017063;-71
2023/11/11 05:24:31;;;;;;;;;;;;;;;12.20;87.09;97379.90;67785;1278;1016459;-73
2023/11/11 05:27:34;;;;;;;;;;;;;;;12.24;86.82;97382.47;67835;1278;1016438;-73
2023/11/11 05:30:36;;;;;;;;;;;;;;;12.29;86.46;97379.17;67828;1278;1016416;-77
2023/11/11 05:33:39;;;;;;;;;;;;;;;12.29;87.05;97382.35;67712;1278;1016429;-72
2023/11/11 05:36:42;;;;;;;;;;;;;;;12.29;86.36;97385.13;67800;1278;1016639;-74
2023/11/11 05:39:44;;;;;;;;;;;;;;;12.12;87.11;97390.17;67824;1278;1016446;-74
2023/11/11 05:42:48;;;;;;;;;;;;;;;12.03;87.85;97389.80;67778;1278;1016342;-74
2023/11/11 05:45:51;;;;;;;;;;;;;;;12.12;88.09;97389.80;67820;1278;1016380;-73
2023/11/11 05:48:53;;;;;;;;;;;;;;;12.16;88.28;97389.63;67781;1278;1016484;-70
2023/11/11 05:51:56;;;;;;;;;;;;;;;12.11;88.86;97387.64;67829;1278;1016309;-74
2023/11/11 05:54:58;;;;;;;;;;;;;;;12.27;87.84;97387.67;67818;1278;1016789;-74
2023/11/11 05:58:01;;;;;;;;;;;;;;;12.27;87.63;97390.73;67790;1278;1016407;-75
2023/11/11 06:01:04;;;;;;;;;;;;;;;12.12;88.64;97392.09;67773;1278;1018836;-72
2023/11/11 06:04:07;;;;;;;;;;;;;;;12.23;88.21;97393.55;67781;1278;1018796;-74
2023/11/11 06:07:10;;;;;;;;;;;;;;;12.14;89.29;97393.04;67755;1278;1016344;-73
2023/11/11 06:10:13;;;;;;;;;;;;;;;12.17;89.51;97396.61;67771;1278;1016164;-76
2023/11/11 06:13:16;;;;;;;;;;;;;;;12.07;89.73;97396.39;67803;1278;1016674;-74
2023/11/11 06:16:18;;;;;;;;;;;;;;;12.13;89.58;97401.31;67808;1278;1018525;-73
2023/11/11 06:19:21;;;;;;;;;;;;;;;12.10;90.79;97398.92;67825;1278;1018833;-68
2023/11/11 06:22:23;;;;;;;;;;;;;;;12.16;91.02;97392.65;67760;1278;1016454;-72
2023/11/11 06:25:26;;;;;;;;;;;;;;;12.09;91.11;97391.29;67777;1278;1016421;-75
2023/11/11 06:28:28;;;;;;;;;;;;;;;12.16;90.62;97393.70;67809;1278;1016467;-75
2023/11/11 06:31:32;;;;;;;;;;;;;;;12.22;90.31;97399.30;67822;1278;1016282;-76
2023/11/11 06:34:35;;;;;;;;;;;;;;;12.50;88.31;97403.61;67809;1278;1015796;-66
2023/11/11 06:37:37;;;;;;;;;;;;;;;12.51;87.49;97406.86;67765;1278;1016098;-71
2023/11/11 06:40:40;;;;;;;;;;;;;;;12.36;88.36;97417.50;67771;1278;1016084;-67
2023/11/11 06:43:42;;;;;;;;;;;;;;;12.46;88.93;97421.97;67804;1278;1016380;-75
2023/11/11 06:46:45;;;;;;;;;;;;;;;12.51;89.21;97425.09;67828;1278;1017109;-75
2023/11/11 06:49:47;;;;;;;;;;;;;;;12.53;89.29;97422.58;67820;1278;1016503;-76
2023/11/11 06:52:51;;;;;;;;;;;;;;;12.68;88.67;97428.23;67772;1278;1016396;-73
2023/11/11 06:55:54;;;;;;;;;;;;;;;12.81;88.16;97429.20;67739;1278;1016396;-70
2023/11/11 06:58:57;;;;;;;;;;;;;;;12.83;87.49;97426.04;67826;1278;1016011;-67
2023/11/11 07:01:59;;;;;;;;;;;;;;;12.69;88.18;97423.95;67765;1278;1017027;-67
2023/11/11 07:05:04;;;;;;;;;;;;;;;12.58;88.92;97423.35;67804;1278;1016332;-70
2023/11/11 07:08:07;;;;;;;;;;;;;;;12.61;88.38;97429.26;67713;1278;1016094;-66
2023/11/11 07:11:09;;;;;;;;;;;;;;;12.62;87.37;97430.61;67766;1278;1016316;-74
2023/11/11 07:14:12;;;;;;;;;;;;;;;12.50;87.14;97431.88;67716;1278;1016236;-68
2023/11/11 07:17:14;;;;;;;;;;;;;;;12.14;89.39;97430.36;67784;1276;1016785;-69
2023/11/11 07:20:18;;;;;;;;;;;;;;;12.03;89.94;97431.84;67787;1278;1016179;-68
2023/11/11 07:23:21;;;;;;;;;;;;;;;11.89;91.37;97431.30;67779;1278;1016380;-66
2023/11/11 07:26:25;;;;;;;;;;;;;;;11.90;91.95;97432.02;67747;1278;1016185;-75
2023/11/11 07:29:28;;;;;;;;;;;;;;;11.75;93.02;97427.10;67771;1278;1016227;-74
2023/11/11 07:32:31;;;;;;;;;;;;;;;11.67;93.92;97425.50;67781;1278;1015984;-70
2023/11/11 07:35:33;;;;;;;;;;;;;;;11.85;92.73;97425.13;67790;1278;1016365;-68
2023/11/11 07:38:36;;;;;;;;;;;;;;;11.98;91.95;97423.80;67772;1278;1016467;-65
2023/11/11 07:41:38;;;;;;;;;;;;;;;12.04;91.09;97419.62;67804;1278;1016245;-67
2023/11/11 07:44:41;;;;;;;;;;;;;;;11.98;91.98;97425.06;67781;1278;1016212;-68
2023/11/11 07:47:43;;;;;;;;;;;;;;;11.91;92.67;97424.28;67770;1278;1016259;-71
2023/11/11 07:50:46;;;;;;;;;;;;;;;11.88;92.64;97423.16;67726;1278;1016195;-76
2023/11/11 07:53:49;;;;;;;;;;;;;;;11.93;92.29;97424.30;67787;1278;1016757;-67
2023/11/11 07:56:51;;;;;;;;;;;;;;;11.91;93.68;97422.52;67783;1278;1015718;-67
2023/11/11 07:59:54;;;;;;;;;;;;;;;12.00;93.47;97419.61;67758;1278;1016337;-66
2023/11/11 08:02:56;;;;;;;;;;;;;;;11.89;94.70;97423.16;67812;1278;1016449;-67
2023/11/11 08:05:59;;;;;;;;;;;;;;;11.94;94.13;97425.59;67789;1278;1016351;-73
2023/11/11 08:09:02;;;;;;;;;;;;;;;11.94;94.51;97421.95;67788;1278;1016204;-77
2023/11/11 08:12:05;;;;;;;;;;;;;;;11.91;95.14;97419.40;67812;1278;1016487;-77
2023/11/11 08:15:08;;;;;;;;;;;;;;;12.17;94.56;97419.38;67734;1278;1016428;-71
2023/11/11 08:18:12;;;;;;;;;;;;;;;12.48;93.30;97412.55;67815;1278;1016437;-70
2023/11/11 08:21:14;;;;;;;;;;;;;;;12.62;93.29;97405.19;67805;1278;1017969;-74
2023/11/11 08:24:17;;;;;;;;;;;;;;;12.82;92.03;97407.67;67806;1278;1016033;-76
2023/11/11 08:27:23;;;;;;;;;;;;;;;12.98;91.52;97411.61;67813;1278;1016422;-76
2023/11/11 08:30:26;;;;;;;;;;;;;;;13.08;90.73;97414.25;67766;1278;1016284;-75
2023/11/11 08:33:29;;;;;;;;;;;;;;;13.17;89.34;97410.76;67746;1278;1016407;-76
2023/11/11 08:36:31;;;;;;;;;;;;;;;13.30;89.19;97409.69;67790;1278;1016407;-74
2023/11/11 08:39:35;;;;;;;;;;;;;;;13.49;88.20;97408.48;67772;1278;1016522;-73
2023/11/11 08:42:39;;;;;;;;;;;;;;;13.64;87.70;97408.95;67789;1278;1016322;-74
2023/11/11 08:45:42;;;;;;;;;;;;;;;13.81;86.66;97409.14;67781;1278;1016426;-72
2023/11/11 08:48:45;;;;;;;;;;;;;;;13.86;86.64;97409.13;67770;1278;1018939;-71
2023/11/11 08:51:48;;;;;;;;;;;;;;;13.89;84.62;97409.42;67801;1278;1016424;-73
2023/11/11 08:54:51;;;;;;;;;;;;;;;13.53;86.26;97414.20;67748;1278;1016318;-72
2023/11/11 08:57:54;;;;;;;;;;;;;;;13.43;86.05;97411.61;67721;1278;1016408;-73
2023/11/11 09:00:57;;;;;;;;;;;;;;;13.26;87.98;97415.55;67766;1278;1019301;-71
2023/11/11 09:03:59;;;;;;;;;;;;;;;13.25;88.23;97418.21;67790;1278;1018935;-75
2023/11/11 09:07:02;;;;;;;;;;;;;;;13.24;88.19;97413.98;67700;1278;1016448;-73
2023/11/11 09:10:04;;;;;;;;;;;;;;;13.10;89.25;97415.80;67639;1279;1016516;-75
2023/11/11 09:13:08;;;;;;;;;;;;;;;12.83;90.41;97419.30;67651;1279;1017156;-76
2023/11/11 09:16:11;;;;;;;;;;;;;;;12.60;91.68;97420.05;67733;1278;1016241;-75
2023/11/11 09:19:14;;;;;;;;;;;;;;;12.58;92.46;97414.45;67720;1279;1016085;-74
2023/11/11 09:22:16;;;;;;;;;;;;;;;12.68;92.25;97410.17;67724;1279;1016207;-75
2023/11/11 09:25:19;;;;;;;;;;;;;;;12.59;92.21;97400.66;67754;1279;1016309;-72
2023/11/11 09:28:21;;;;;;;;;;;;;;;12.37;94.28;97399.54;67750;1279;1016439;-76
2023/11/11 09:31:24;;;;;;;;;;;;;;;12.35;94.25;97400.41;67771;1278;1016456;-74
2023/11/11 09:34:26;;;;;;;;;;;;;;;12.33;94.96;97398.84;67791;1278;1016519;-76
2023/11/11 09:37:29;;;;;;;;;;;;;;;12.34;95.09;97397.81;67782;1278;1016245;-76
2023/11/11 09:40:31;;;;;;;;;;;;;;;12.20;96.07;97401.38;67785;1278;1016360;-73
2023/11/11 09:43:34;;;;;;;;;;;;;;;12.02;97.56;97398.64;67709;1278;1017989;-73
2023/11/11 09:46:36;;;;;;;;;;;;;;;11.96;98.92;97394.98;67773;1278;1016462;-75
2023/11/11 09:49:39;;;;;;;;;;;;;;;11.99;97.79;97391.20;67787;1278;1015929;-75
2023/11/11 09:53:54;;;;;;;48.30;23.30;;;;;;;11.90;99.24;97390.55;131769;1304;544768;-75
2023/11/11 09:56:57;;;;;;;;;;;;;;;11.89;98.86;97400.94;134751;1288;22527;-74
2023/11/11 10:00:00;;;;;;;43.00;20.80;;;;;;;11.90;97.36;97400.85;134799;1288;22570;-76
2023/11/11 10:03:03;;;;;;;45.30;21.40;;;;;;;11.95;97.16;97396.23;134801;1288;22550;-75
2023/11/11 10:06:05;;;;;;;46.40;22.50;;;;;;;12.00;97.86;97395.68;134731;1285;141862;-75
2023/11/11 10:09:12;;;;;;;;;;;;;;;12.23;95.54;97393.79;134928;1285;22521;-75
2023/11/11 10:12:14;;;;;;;45.90;22.80;;;;;;;12.40;94.34;97392.02;134929;1265;22561;-73
2023/11/11 10:15:17;;;;;;;;;;;;;;;12.38;92.96;97395.02;134833;1285;22534;-72
2023/11/11 10:18:19;;;;;;;46.20;21.80;;;;;;;12.46;92.56;97393.80;136359;1285;22142;-74
2023/11/11 10:21:22;;;;;;;43.90;21.40;;;;;;;12.32;93.68;97397.48;136113;1282;22557;-73
2023/11/11 10:24:25;;;;;;;49.30;23.30;;;;;;;12.12;96.09;97396.79;134756;1285;22576;-72
2023/11/11 10:27:27;;;;;;;46.70;24.30;;;;;;;11.91;98.28;97396.79;134725;1285;25395;-73
2023/11/11 10:30:30;;;;;;;;;;;;;;;11.96;97.51;97393.84;134802;1285;24375;-72
2023/11/11 10:33:32;;;;;;;55.10;27.20;;;;;;;11.93;98.37;97387.64;134924;1285;22576;-73
2023/11/11 10:36:35;;;;;;;;;;;;;;;12.10;97.81;97386.20;134912;1285;25372;-73
2023/11/11 10:39:39;;;;;;;52.30;26.00;;;;;;;12.24;97.53;97381.27;134924;1285;22627;-73
2023/11/11 10:42:41;;;;;;;57.10;29.10;;;;;;;12.24;96.91;97373.66;134898;1285;22774;-73
2023/11/11 10:45:44;;;;;;;;;;;;;;;12.46;96.31;97367.46;134928;1285;22660;-72
2023/11/11 10:48:47;;;;;;;55.30;29.00;;;;;;;12.66;94.72;97364.96;134883;1285;25415;-72
2023/11/11 10:51:50;;;;;;;56.80;28.30;;;;;;;12.85;92.99;97359.89;134912;1285;22704;-72
2023/11/11 10:54:55;;;;;;;57.40;28.70;;;;;;;13.01;91.16;97360.61;134905;1270;22549;-72
2023/11/11 10:57:58;;;;;;;54.40;27.80;;;;;;;13.19;90.71;97356.91;136118;1259;25448;-72
2023/11/11 11:01:01;;;;;;;;;;;;;;;13.38;89.31;97356.00;136153;1274;24432;-72
2023/11/11 11:04:03;;;;;;;;;;;;;;;13.44;88.29;97353.13;136045;1274;22525;-72
2023/11/11 11:07:09;;;;;;;58.80;30.00;;;;;;;13.56;87.78;97351.40;136072;1274;22541;-72
2023/11/11 11:10:12;;;;;;;52.30;27.30;;;;;;;13.67;86.47;97350.01;136083;1272;24344;-72
2023/11/11 11:13:15;;;;;;;53.40;27.70;;;;;;;13.68;86.88;97347.45;136090;1274;22545;-71
2023/11/11 11:16:17;;;;;;;50.60;27.20;;;;;;;13.82;86.18;97347.64;136090;1274;24375;-72
2023/11/11 11:19:20;;;;;;;;;;;;;;;13.91;85.66;97346.98;136102;1274;22527;-72
2023/11/11 11:22:22;;;;;;;52.10;27.30;;;;;;;14.10;84.53;97347.02;136095;1267;22541;-72
2023/11/11 11:25:25;;;;;;;;;;;;;;;14.10;83.55;97343.35;136046;1274;22516;-72
2023/11/11 11:28:29;;;;;;;54.10;27.40;;;;;;;14.04;85.00;97339.39;136043;1274;22546;-71
2023/11/11 11:31:31;;;;;;;51.40;27.60;;;;;;;14.03;84.72;97341.78;136072;1256;22549;-71
2023/11/11 11:34:34;;;;;;;;;;;;;;;14.03;84.78;97341.23;136099;1274;23244;-71
2023/11/11 11:37:37;;;;;;;50.30;26.70;;;;;;;14.11;85.29;97340.46;136078;1274;22550;-71
2023/11/11 11:40:39;;;;;;;50.50;27.50;;;;;;;14.28;84.20;97347.80;136078;1274;22541;-72
2023/11/11 11:43:42;;;;;;;50.50;28.60;;;;;;;14.27;83.20;97351.23;136112;1274;22541;-72
2023/11/11 11:46:45;;;;;;;51.10;27.90;;;;;;;14.24;83.07;97342.29;135989;1274;24225;-71
2023/11/11 11:49:49;;;;;;;50.50;28.00;;;;;;;14.20;82.20;97336.80;136044;1274;22537;-71
2023/11/11 11:52:53;;;;;;;48.60;26.30;;;;;;;13.94;82.90;97333.92;136041;1274;24254;-71
2023/11/11 11:55:56;;;;;;;49.80;26.80;;;;;;;13.89;83.46;97330.31;136083;1256;22564;-71
2023/11/11 11:59:00;;;;;;;;;;;;;;;13.88;84.71;97327.25;136058;1274;22540;-71
2023/11/11 12:02:03;;;;;;;47.50;26.60;;;;;;;13.85;85.22;97328.80;136062;1274;22546;-71
2023/11/11 12:05:05;;;;;;;;;;;;;;;13.91;84.45;97331.48;135992;1274;22600;-71
2023/11/11 12:08:08;;;;;;;46.10;25.90;;;;;;;13.90;84.54;97332.17;136026;1274;22527;-71
2023/11/11 12:11:11;;;;;;;48.70;26.60;;;;;;;13.97;83.95;97331.80;136036;1274;22538;-70
2023/11/11 12:14:14;;;;;;;;;;;;;;;14.06;83.42;97334.59;136058;1274;22623;-71
2023/11/11 12:17:17;;;;;;;54.70;27.90;;;;;;;14.01;83.54;97334.05;136081;1274;25475;-71
2023/11/11 12:20:19;;;;;;;50.00;26.50;;;;;;;13.98;83.75;97333.98;136081;1274;25406;-72
2023/11/11 12:23:22;;;;;;;;;;;;;;;14.19;82.35;97331.06;136110;1257;22501;-71
2023/11/11 12:26:27;;;;;;;50.70;25.90;;;;;;;13.99;84.00;97331.27;136072;1256;23025;-71
2023/11/11 12:29:30;;;;;;;47.10;25.50;;;;;;;14.20;81.35;97328.11;136062;1274;22548;-71
2023/11/11 12:32:32;;;;;;;;;;;;;;;13.92;83.37;97329.82;136073;1274;22514;-72
2023/11/11 12:35:38;;;;;;;53.00;29.10;;;;;;;13.72;84.64;97325.59;136027;1256;22540;-71
2023/11/11 12:38:41;;;;;;;51.10;27.80;;;;;;;13.96;83.45;97325.58;136083;1274;26548;-71
2023/11/11 12:41:45;;;;;;;;;;;;;;;13.75;84.24;97324.65;136074;1260;22519;-72
2023/11/11 12:44:49;;;;;;;53.00;27.30;;;;;;;13.59;84.12;97324.14;136013;1254;23128;-73
2023/11/11 12:47:51;;;;;;;50.20;28.30;;;;;;;13.65;84.69;97324.23;135967;1274;25552;-72
2023/11/11 12:50:54;;;;;;;;;;;;;;;13.72;83.94;97326.38;136047;1274;22530;-72
2023/11/11 12:53:57;;;;;;;54.60;30.20;;;;;;;13.87;83.13;97325.92;136073;1274;22537;-71
2023/11/11 12:56:59;;;;;;;56.50;30.60;;;;;;;13.62;84.29;97324.84;136073;1274;22555;-72
2023/11/11 13:00:05;;;;;;;;;;;;;;;13.57;84.82;97326.73;136061;1274;22532;-73
2023/11/11 13:03:09;;;;;;;54.30;29.90;;;;;;;13.65;84.17;97331.61;136090;1274;22507;-72
2023/11/11 13:06:14;;;;;;;54.40;30.60;;;;;;;13.44;85.81;97336.25;136047;1274;22535;-72
2023/11/11 13:09:19;;;;;;;54.40;30.10;;;;;;;13.36;86.86;97338.77;136065;1274;22530;-72
2023/11/11 13:12:22;;;;;;;57.70;30.80;;;;;;;13.27;87.12;97344.52;136080;1255;22671;-72
2023/11/11 13:15:24;;;;;;;58.60;31.90;;;;;;;13.21;87.92;97348.41;136047;1252;24262;-73
2023/11/11 13:18:27;;;;;;;;;;;;;;;13.26;87.95;97349.02;136052;1274;22507;-73
2023/11/11 13:21:31;;;;;;;58.30;31.50;;;;;;;13.03;89.35;97347.86;136051;1274;22547;-72
2023/11/11 13:24:36;;;;;;;56.10;30.40;;;;;;;12.97;90.46;97345.96;136045;1274;24353;-73
2023/11/11 13:27:39;;;;;;;53.60;30.00;;;;;;;12.91;90.61;97349.63;135990;1274;22779;-72
2023/11/11 13:30:41;;;;;;;;;;;;;;;12.87;90.90;97352.53;136034;1274;25369;-73
2023/11/11 13:33:44;;;;;;;59.00;31.90;;;;;;;12.81;91.32;97350.18;136051;1274;22575;-72
2023/11/11 13:36:47;;;;;;;53.90;30.20;;;;;;;12.78;91.73;97350.64;136058;1274;24055;-73
2023/11/11 13:39:51;;;;;;;;;;;;;;;12.73;92.14;97349.64;136084;1274;22523;-73
2023/11/11 13:42:54;;;;;;;59.40;32.60;;;;;;;12.66;93.42;97348.96;136085;1274;24269;-73
2023/11/11 13:45:56;;;;;;;63.30;32.70;;;;;;;12.55;93.95;97353.50;136068;1274;22552;-73
2023/11/11 13:48:59;;;;;;;59.20;30.50;;;;;;;12.53;94.35;97356.19;136015;1274;22542;-73
2023/11/11 13:52:02;;;;;;;57.10;32.40;;;;;;;12.30;96.24;97357.91;136085;1263;22533;-73
2023/11/11 13:55:05;;;;;;;54.80;30.90;;;;;;;12.26;96.36;97359.72;136097;1274;22540;-72
2023/11/11 13:58:07;;;;;;;54.80;30.50;;;;;;;12.35;95.17;97360.42;136104;1274;23131;-73
2023/11/11 14:01:10;;;;;;;;;;;;;;;12.27;96.18;97367.66;136070;1274;22514;-73
2023/11/11 14:04:15;;;;;;;54.60;30.40;;;;;;;12.19;96.43;97366.73;136106;1274;22557;-73
2023/11/11 14:07:18;;;;;;;55.00;30.70;;;;;;;12.38;94.90;97364.05;135996;1274;22548;-72
2023/11/11 14:10:23;;;;;;;53.90;30.80;;;;;;;12.51;93.60;97363.59;136013;1256;22580;-72
2023/11/11 14:13:26;;;;;;;55.80;32.00;;;;;;;12.52;93.39;97362.39;136087;1256;24313;-73
2023/11/11 14:16:28;;;;;;;;;;;;;;;12.55;92.98;97359.63;135888;1274;22531;-72
2023/11/11 14:19:31;;;;;;;59.20;32.70;;;;;;;12.59;92.60;97361.71;135908;1274;22533;-73
2023/11/11 14:22:33;;;;;;;;;;;;;;;12.54;92.84;97364.15;135885;1274;22548;-74
2023/11/11 14:25:36;;;;;;;56.50;31.60;;;;;;;12.58;92.50;97363.73;136052;1274;22578;-74
2023/11/11 14:28:38;;;;;;;;;;;;;;;12.71;91.38;97365.91;135891;1274;22531;-73
2023/11/11 14:31:41;;;;;;;60.60;33.60;;;;;;;12.82;91.12;97361.07;135940;1273;22530;-73
2023/11/11 14:34:45;;;;;;;60.20;32.50;;;;;;;12.81;90.57;97367.59;135897;1273;22561;-73
2023/11/11 14:37:53;;;;;;;61.10;32.20;;;;;;;12.68;91.08;97366.70;135874;1256;22534;-72
2023/11/11 14:40:55;;;;;;;60.30;34.50;;;;;;;12.73;91.19;97368.86;135901;1273;22548;-72
2023/11/11 14:43:58;;;;;;;59.80;33.90;;;;;;;12.73;90.90;97369.95;135847;1273;22646;-73
2023/11/11 14:47:00;;;;;;;;;;;;;;;12.71;90.79;97368.68;135849;1273;22614;-73
2023/11/11 14:50:04;;;;;;;62.10;34.90;;;;;;;12.65;91.01;97369.73;135899;1273;22657;-72
2023/11/11 14:53:08;;;;;;;57.40;31.30;;;;;;;12.53;92.17;97368.43;135892;1270;22693;-73
2023/11/11 14:56:10;;;;;;;60.70;33.70;;;;;;;12.36;93.51;97367.35;135911;1273;22550;-73
2023/11/11 14:59:14;;;;;;;;;;;;;;;12.25;94.92;97369.95;135923;1273;22530;-73
2023/11/11 15:02:20;;;;;;;61.10;33.30;;;;;;;12.33;94.63;97369.92;135863;1262;22535;-73